KASL/ASL METAR and TAF weather

Enter ICAO airport designator
Station Type Date Time Source
KASL METAR 2019/12/14 05:55 UTC NOAA

KASL 140555Z AUTO 33003KT 10SM CLR 07/06 A2987 RMK AO1 T00720062 10127 20059 401840030


Station Type Date Time Source
KASL Decoded METAR 2019/12/14 05:55 UTC NOAA

Station name not available
Dec 14, 2019 - 12:55 AM EST / 2019.12.14 0555 UTC
Wind: from the NNW (330 degrees) at 3 MPH (3 KT):0
Visibility: 10 mile(s):0
Sky conditions: clear
Temperature: 45.0 F (7.2 C)
Dew Point: 43.2 F (6.2 C)
Relative Humidity: 93%
Pressure (altimeter): 29.87 in. Hg (1011 hPa)
ob: KASL 140555Z AUTO 33003KT 10SM CLR 07/06 A2987 RMK AO1 T00720062 10127 20059 401840030
cycle: 6

Station Type Date Time Source
KASL TAF UTC NOAA

Error!

Example: see airport list